sensor_id;sensor_type;location;lat;lon;timestamp;temperature;humidity
75130;HTU21D;63703;44.716;37.846;2023-03-01T00:01:50;4.24;74.04
75130;HTU21D;63703;44.716;37.846;2023-03-01T00:04:16;4.28;74.11
75130;HTU21D;63703;44.716;37.846;2023-03-01T00:06:42;4.22;74.20
75130;HTU21D;63703;44.716;37.846;2023-03-01T00:09:12;4.19;74.26
75130;HTU21D;63703;44.716;37.846;2023-03-01T00:11:38;4.16;74.37
75130;HTU21D;63703;44.716;37.846;2023-03-01T00:14:05;4.09;74.35
75130;HTU21D;63703;44.716;37.846;2023-03-01T00:16:35;4.06;74.48
75130;HTU21D;63703;44.716;37.846;2023-03-01T00:19:01;4.02;74.59
75130;HTU21D;63703;44.716;37.846;2023-03-01T00:21:28;3.99;74.62
75130;HTU21D;63703;44.716;37.846;2023-03-01T00:23:54;3.99;74.76
75130;HTU21D;63703;44.716;37.846;2023-03-01T00:26:22;3.98;74.69
75130;HTU21D;63703;44.716;37.846;2023-03-01T00:28:49;3.98;74.67
75130;HTU21D;63703;44.716;37.846;2023-03-01T00:31:19;3.97;74.76
75130;HTU21D;63703;44.716;37.846;2023-03-01T00:33:46;3.97;74.89
75130;HTU21D;63703;44.716;37.846;2023-03-01T00:36:14;3.91;74.89
75130;HTU21D;63703;44.716;37.846;2023-03-01T00:38:43;3.90;74.86
75130;HTU21D;63703;44.716;37.846;2023-03-01T00:41:12;3.93;75.12
75130;HTU21D;63703;44.716;37.846;2023-03-01T00:43:38;3.92;74.96
75130;HTU21D;63703;44.716;37.846;2023-03-01T00:46:09;3.92;74.92
75130;HTU21D;63703;44.716;37.846;2023-03-01T00:48:36;3.91;74.93
75130;HTU21D;63703;44.716;37.846;2023-03-01T00:53:42;3.93;74.83
75130;HTU21D;63703;44.716;37.846;2023-03-01T00:56:09;3.91;74.76
75130;HTU21D;63703;44.716;37.846;2023-03-01T00:58:36;3.91;74.79
75130;HTU21D;63703;44.716;37.846;2023-03-01T01:01:14;3.90;75.08
75130;HTU21D;63703;44.716;37.846;2023-03-01T01:03:49;3.90;74.88
75130;HTU21D;63703;44.716;37.846;2023-03-01T01:06:24;3.95;74.71
75130;HTU21D;63703;44.716;37.846;2023-03-01T01:08:51;3.95;74.64
75130;HTU21D;63703;44.716;37.846;2023-03-01T01:11:18;4.00;74.52
75130;HTU21D;63703;44.716;37.846;2023-03-01T01:13:46;4.04;74.41
75130;HTU21D;63703;44.716;37.846;2023-03-01T01:16:13;4.04;74.34
75130;HTU21D;63703;44.716;37.846;2023-03-01T01:18:39;4.04;74.32
75130;HTU21D;63703;44.716;37.846;2023-03-01T01:21:10;4.09;74.18
75130;HTU21D;63703;44.716;37.846;2023-03-01T01:23:37;4.10;74.06
75130;HTU21D;63703;44.716;37.846;2023-03-01T01:26:06;4.10;74.02
75130;HTU21D;63703;44.716;37.846;2023-03-01T01:28:32;4.09;73.94
75130;HTU21D;63703;44.716;37.846;2023-03-01T01:30:59;4.08;73.88
75130;HTU21D;63703;44.716;37.846;2023-03-01T01:33:25;4.08;73.80
75130;HTU21D;63703;44.716;37.846;2023-03-01T01:35:51;4.12;73.64
75130;HTU21D;63703;44.716;37.846;2023-03-01T01:38:17;4.10;73.50
75130;HTU21D;63703;44.716;37.846;2023-03-01T01:40:44;4.09;73.38
75130;HTU21D;63703;44.716;37.846;2023-03-01T01:43:26;4.09;73.33
75130;HTU21D;63703;44.716;37.846;2023-03-01T01:46:00;4.09;73.15
75130;HTU21D;63703;44.716;37.846;2023-03-01T01:48:48;4.12;72.90
75130;HTU21D;63703;44.716;37.846;2023-03-01T01:51:19;4.22;71.88
75130;HTU21D;63703;44.716;37.846;2023-03-01T01:53:52;4.34;71.08
75130;HTU21D;63703;44.716;37.846;2023-03-01T01:56:20;4.45;70.08
75130;HTU21D;63703;44.716;37.846;2023-03-01T01:58:47;4.44;70.34
75130;HTU21D;63703;44.716;37.846;2023-03-01T02:01:13;4.45;70.35
75130;HTU21D;63703;44.716;37.846;2023-03-01T02:03:42;4.50;69.88
75130;HTU21D;63703;44.716;37.846;2023-03-01T02:06:15;4.58;69.21
75130;HTU21D;63703;44.716;37.846;2023-03-01T02:08:44;4.66;68.15
75130;HTU21D;63703;44.716;37.846;2023-03-01T02:11:12;4.76;67.43
75130;HTU21D;63703;44.716;37.846;2023-03-01T02:13:40;4.77;67.85
75130;HTU21D;63703;44.716;37.846;2023-03-01T02:16:14;4.84;66.48
75130;HTU21D;63703;44.716;37.846;2023-03-01T02:18:41;4.83;66.20
75130;HTU21D;63703;44.716;37.846;2023-03-01T02:21:45;4.81;65.87
75130;HTU21D;63703;44.716;37.846;2023-03-01T02:26:47;4.92;64.76
75130;HTU21D;63703;44.716;37.846;2023-03-01T02:29:14;4.96;64.56
75130;HTU21D;63703;44.716;37.846;2023-03-01T02:31:40;4.96;63.88
75130;HTU21D;63703;44.716;37.846;2023-03-01T02:34:13;5.01;62.85
75130;HTU21D;63703;44.716;37.846;2023-03-01T02:37:03;4.97;63.29
75130;HTU21D;63703;44.716;37.846;2023-03-01T02:39:41;4.91;63.37
75130;HTU21D;63703;44.716;37.846;2023-03-01T02:42:11;4.89;62.90
75130;HTU21D;63703;44.716;37.846;2023-03-01T02:44:38;4.90;62.76
75130;HTU21D;63703;44.716;37.846;2023-03-01T02:47:04;4.91;62.47
75130;HTU21D;63703;44.716;37.846;2023-03-01T02:49:34;4.91;62.27
75130;HTU21D;63703;44.716;37.846;2023-03-01T02:55:10;4.89;61.99
75130;HTU21D;63703;44.716;37.846;2023-03-01T02:57:40;4.86;62.28
75130;HTU21D;63703;44.716;37.846;2023-03-01T03:00:15;4.86;62.24
75130;HTU21D;63703;44.716;37.846;2023-03-01T03:02:50;4.84;62.61
75130;HTU21D;63703;44.716;37.846;2023-03-01T03:05:21;4.84;62.60
75130;HTU21D;63703;44.716;37.846;2023-03-01T03:07:51;4.83;62.41
75130;HTU21D;63703;44.716;37.846;2023-03-01T03:10:29;4.80;62.60
75130;HTU21D;63703;44.716;37.846;2023-03-01T03:13:02;4.76;62.86
75130;HTU21D;63703;44.716;37.846;2023-03-01T03:15:30;4.72;63.18
75130;HTU21D;63703;44.716;37.846;2023-03-01T03:17:57;4.69;63.28
75130;HTU21D;63703;44.716;37.846;2023-03-01T03:20:26;4.67;63.51
75130;HTU21D;63703;44.716;37.846;2023-03-01T03:22:53;4.64;63.69
75130;HTU21D;63703;44.716;37.846;2023-03-01T03:25:21;4.63;63.80
75130;HTU21D;63703;44.716;37.846;2023-03-01T03:27:50;4.69;63.55
75130;HTU21D;63703;44.716;37.846;2023-03-01T03:30:27;4.69;63.66
75130;HTU21D;63703;44.716;37.846;2023-03-01T03:32:53;4.67;63.85
75130;HTU21D;63703;44.716;37.846;2023-03-01T03:35:24;4.66;63.95
75130;HTU21D;63703;44.716;37.846;2023-03-01T03:37:51;4.63;64.05
75130;HTU21D;63703;44.716;37.846;2023-03-01T03:40:37;4.63;64.14
75130;HTU21D;63703;44.716;37.846;2023-03-01T03:43:05;4.58;64.15
75130;HTU21D;63703;44.716;37.846;2023-03-01T03:45:31;4.59;64.22
75130;HTU21D;63703;44.716;37.846;2023-03-01T03:47:59;4.59;64.24
75130;HTU21D;63703;44.716;37.846;2023-03-01T03:50:26;4.62;64.15
75130;HTU21D;63703;44.716;37.846;2023-03-01T03:52:51;4.67;63.92
75130;HTU21D;63703;44.716;37.846;2023-03-01T03:55:18;4.73;63.63
75130;HTU21D;63703;44.716;37.846;2023-03-01T03:57:46;4.73;63.77
75130;HTU21D;63703;44.716;37.846;2023-03-01T04:00:21;4.69;63.95
75130;HTU21D;63703;44.716;37.846;2023-03-01T04:02:50;4.65;64.11
75130;HTU21D;63703;44.716;37.846;2023-03-01T04:05:18;4.65;64.18
75130;HTU21D;63703;44.716;37.846;2023-03-01T04:07:45;4.64;64.16
75130;HTU21D;63703;44.716;37.846;2023-03-01T04:10:16;4.62;64.30
75130;HTU21D;63703;44.716;37.846;2023-03-01T04:12:42;4.60;64.38
75130;HTU21D;63703;44.716;37.846;2023-03-01T04:15:10;4.58;64.45
75130;HTU21D;63703;44.716;37.846;2023-03-01T04:17:39;4.54;64.56
75130;HTU21D;63703;44.716;37.846;2023-03-01T04:20:12;4.56;64.60
75130;HTU21D;63703;44.716;37.846;2023-03-01T04:22:40;4.57;64.63
75130;HTU21D;63703;44.716;37.846;2023-03-01T04:25:06;4.58;64.72
75130;HTU21D;63703;44.716;37.846;2023-03-01T04:27:33;4.65;64.63
75130;HTU21D;63703;44.716;37.846;2023-03-01T04:30:00;4.68;64.76
75130;HTU21D;63703;44.716;37.846;2023-03-01T04:32:26;4.62;65.08
75130;HTU21D;63703;44.716;37.846;2023-03-01T04:34:51;4.62;65.15
75130;HTU21D;63703;44.716;37.846;2023-03-01T04:37:17;4.65;65.04
75130;HTU21D;63703;44.716;37.846;2023-03-01T04:39:43;4.69;64.89
75130;HTU21D;63703;44.716;37.846;2023-03-01T04:42:15;4.76;64.66
75130;HTU21D;63703;44.716;37.846;2023-03-01T04:44:43;4.79;64.62
75130;HTU21D;63703;44.716;37.846;2023-03-01T04:47:09;4.83;64.35
75130;HTU21D;63703;44.716;37.846;2023-03-01T04:49:35;4.83;64.53
75130;HTU21D;63703;44.716;37.846;2023-03-01T04:52:01;4.84;64.49
75130;HTU21D;63703;44.716;37.846;2023-03-01T04:54:34;4.86;64.50
75130;HTU21D;63703;44.716;37.846;2023-03-01T04:57:00;4.82;64.59
75130;HTU21D;63703;44.716;37.846;2023-03-01T04:59:27;4.86;64.56
75130;HTU21D;63703;44.716;37.846;2023-03-01T05:01:56;4.87;64.69
75130;HTU21D;63703;44.716;37.846;2023-03-01T05:04:23;4.89;64.74
75130;HTU21D;63703;44.716;37.846;2023-03-01T05:06:49;4.88;64.79
75130;HTU21D;63703;44.716;37.846;2023-03-01T05:09:15;4.87;64.86
75130;HTU21D;63703;44.716;37.846;2023-03-01T05:11:42;4.86;64.85
75130;HTU21D;63703;44.716;37.846;2023-03-01T05:14:09;4.87;64.81
75130;HTU21D;63703;44.716;37.846;2023-03-01T05:16:35;4.89;64.76
75130;HTU21D;63703;44.716;37.846;2023-03-01T05:19:03;4.92;64.71
75130;HTU21D;63703;44.716;37.846;2023-03-01T05:21:39;4.93;64.73
75130;HTU21D;63703;44.716;37.846;2023-03-01T05:24:25;4.90;64.85
75130;HTU21D;63703;44.716;37.846;2023-03-01T05:26:52;4.90;64.95
75130;HTU21D;63703;44.716;37.846;2023-03-01T05:29:19;4.90;64.98
75130;HTU21D;63703;44.716;37.846;2023-03-01T05:34:23;4.96;64.92
75130;HTU21D;63703;44.716;37.846;2023-03-01T05:36:49;5.02;64.82
75130;HTU21D;63703;44.716;37.846;2023-03-01T05:39:23;5.10;64.64
75130;HTU21D;63703;44.716;37.846;2023-03-01T05:41:53;5.09;64.79
75130;HTU21D;63703;44.716;37.846;2023-03-01T05:44:20;5.05;64.92
75130;HTU21D;63703;44.716;37.846;2023-03-01T05:46:46;5.03;65.01
75130;HTU21D;63703;44.716;37.846;2023-03-01T05:49:12;5.03;65.08
75130;HTU21D;63703;44.716;37.846;2023-03-01T05:51:42;5.05;65.09
75130;HTU21D;63703;44.716;37.846;2023-03-01T05:54:09;5.04;65.15
75130;HTU21D;63703;44.716;37.846;2023-03-01T05:56:36;5.07;65.21
75130;HTU21D;63703;44.716;37.846;2023-03-01T05:59:04;5.08;65.37
75130;HTU21D;63703;44.716;37.846;2023-03-01T06:01:34;5.10;65.40
75130;HTU21D;63703;44.716;37.846;2023-03-01T06:04:00;5.15;65.37
75130;HTU21D;63703;44.716;37.846;2023-03-01T06:06:26;5.20;65.38
75130;HTU21D;63703;44.716;37.846;2023-03-01T06:08:52;5.22;65.43
75130;HTU21D;63703;44.716;37.846;2023-03-01T06:11:19;5.22;65.51
75130;HTU21D;63703;44.716;37.846;2023-03-01T06:13:46;5.22;65.50
75130;HTU21D;63703;44.716;37.846;2023-03-01T06:16:13;5.25;65.46
75130;HTU21D;63703;44.716;37.846;2023-03-01T06:18:39;5.24;65.53
75130;HTU21D;63703;44.716;37.846;2023-03-01T06:21:07;5.23;65.60
75130;HTU21D;63703;44.716;37.846;2023-03-01T06:23:33;5.23;65.67
75130;HTU21D;63703;44.716;37.846;2023-03-01T06:25:59;5.24;65.88
75130;HTU21D;63703;44.716;37.846;2023-03-01T06:28:25;5.21;65.78
75130;HTU21D;63703;44.716;37.846;2023-03-01T06:30:52;5.21;65.85
75130;HTU21D;63703;44.716;37.846;2023-03-01T06:33:19;5.24;65.80
75130;HTU21D;63703;44.716;37.846;2023-03-01T06:35:50;5.23;65.85
75130;HTU21D;63703;44.716;37.846;2023-03-01T06:38:16;5.26;65.79
75130;HTU21D;63703;44.716;37.846;2023-03-01T06:40:44;5.31;65.82
75130;HTU21D;63703;44.716;37.846;2023-03-01T06:43:10;5.36;65.72
75130;HTU21D;63703;44.716;37.846;2023-03-01T06:45:36;5.35;65.71
75130;HTU21D;63703;44.716;37.846;2023-03-01T06:48:06;5.34;65.78
75130;HTU21D;63703;44.716;37.846;2023-03-01T06:50:34;5.34;65.79
75130;HTU21D;63703;44.716;37.846;2023-03-01T06:53:00;5.40;65.73
75130;HTU21D;63703;44.716;37.846;2023-03-01T06:55:26;5.48;65.63
75130;HTU21D;63703;44.716;37.846;2023-03-01T06:57:56;5.53;65.56
75130;HTU21D;63703;44.716;37.846;2023-03-01T07:00:23;5.61;65.47
75130;HTU21D;63703;44.716;37.846;2023-03-01T07:02:49;5.66;65.40
75130;HTU21D;63703;44.716;37.846;2023-03-01T07:05:15;5.74;65.34
75130;HTU21D;63703;44.716;37.846;2023-03-01T07:07:41;5.81;65.27
75130;HTU21D;63703;44.716;37.846;2023-03-01T07:10:08;5.85;65.17
75130;HTU21D;63703;44.716;37.846;2023-03-01T07:12:34;5.91;65.09
75130;HTU21D;63703;44.716;37.846;2023-03-01T07:15:00;5.92;64.88
75130;HTU21D;63703;44.716;37.846;2023-03-01T07:17:26;5.89;64.98
75130;HTU21D;63703;44.716;37.846;2023-03-01T07:19:52;5.90;65.02
75130;HTU21D;63703;44.716;37.846;2023-03-01T07:22:17;5.98;64.92
75130;HTU21D;63703;44.716;37.846;2023-03-01T07:24:44;6.02;64.86
75130;HTU21D;63703;44.716;37.846;2023-03-01T07:27:10;6.09;64.77
75130;HTU21D;63703;44.716;37.846;2023-03-01T07:29:36;6.13;64.77
75130;HTU21D;63703;44.716;37.846;2023-03-01T07:32:03;6.14;64.63
75130;HTU21D;63703;44.716;37.846;2023-03-01T07:34:29;6.22;64.66
75130;HTU21D;63703;44.716;37.846;2023-03-01T07:36:55;6.28;64.37
75130;HTU21D;63703;44.716;37.846;2023-03-01T07:39:21;6.28;64.13
75130;HTU21D;63703;44.716;37.846;2023-03-01T07:41:49;6.23;64.22
75130;HTU21D;63703;44.716;37.846;2023-03-01T07:44:20;6.31;64.34
75130;HTU21D;63703;44.716;37.846;2023-03-01T07:46:46;6.40;63.87
75130;HTU21D;63703;44.716;37.846;2023-03-01T07:49:12;6.30;63.79
75130;HTU21D;63703;44.716;37.846;2023-03-01T07:51:38;6.25;63.85
75130;HTU21D;63703;44.716;37.846;2023-03-01T07:54:04;6.19;63.86
75130;HTU21D;63703;44.716;37.846;2023-03-01T07:56:30;6.24;64.02
75130;HTU21D;63703;44.716;37.846;2023-03-01T07:58:56;6.30;63.82
75130;HTU21D;63703;44.716;37.846;2023-03-01T08:01:22;6.37;63.72
75130;HTU21D;63703;44.716;37.846;2023-03-01T08:03:48;6.41;63.63
75130;HTU21D;63703;44.716;37.846;2023-03-01T08:06:16;6.48;63.68
75130;HTU21D;63703;44.716;37.846;2023-03-01T08:08:42;6.56;63.54
75130;HTU21D;63703;44.716;37.846;2023-03-01T08:11:10;6.63;63.54
75130;HTU21D;63703;44.716;37.846;2023-03-01T08:13:37;6.72;63.28
75130;HTU21D;63703;44.716;37.846;2023-03-01T08:16:05;6.83;63.07
75130;HTU21D;63703;44.716;37.846;2023-03-01T08:18:31;6.91;62.87
75130;HTU21D;63703;44.716;37.846;2023-03-01T08:21:05;6.98;62.47
75130;HTU21D;63703;44.716;37.846;2023-03-01T08:23:32;7.03;62.49
75130;HTU21D;63703;44.716;37.846;2023-03-01T08:26:11;7.12;62.17
75130;HTU21D;63703;44.716;37.846;2023-03-01T08:28:38;7.05;61.70
75130;HTU21D;63703;44.716;37.846;2023-03-01T08:33:40;7.02;61.76
75130;HTU21D;63703;44.716;37.846;2023-03-01T08:36:07;7.09;61.85
75130;HTU21D;63703;44.716;37.846;2023-03-01T08:38:34;7.18;61.76
75130;HTU21D;63703;44.716;37.846;2023-03-01T08:41:01;7.23;61.34
75130;HTU21D;63703;44.716;37.846;2023-03-01T08:43:27;7.38;61.38
75130;HTU21D;63703;44.716;37.846;2023-03-01T08:45:53;7.54;61.10
75130;HTU21D;63703;44.716;37.846;2023-03-01T08:48:19;7.61;61.11
75130;HTU21D;63703;44.716;37.846;2023-03-01T08:50:46;7.67;60.95
75130;HTU21D;63703;44.716;37.846;2023-03-01T08:53:11;7.70;60.91
75130;HTU21D;63703;44.716;37.846;2023-03-01T08:55:37;7.71;60.65
75130;HTU21D;63703;44.716;37.846;2023-03-01T08:58:03;7.78;60.60
75130;HTU21D;63703;44.716;37.846;2023-03-01T09:00:29;7.90;60.64
75130;HTU21D;63703;44.716;37.846;2023-03-01T09:02:55;8.04;60.34
75130;HTU21D;63703;44.716;37.846;2023-03-01T09:05:21;8.03;60.09
75130;HTU21D;63703;44.716;37.846;2023-03-01T09:07:47;8.08;60.11
75130;HTU21D;63703;44.716;37.846;2023-03-01T09:10:13;8.15;59.82
75130;HTU21D;63703;44.716;37.846;2023-03-01T09:12:39;8.30;59.73
75130;HTU21D;63703;44.716;37.846;2023-03-01T09:15:06;8.30;59.59
75130;HTU21D;63703;44.716;37.846;2023-03-01T09:17:34;8.34;59.63
75130;HTU21D;63703;44.716;37.846;2023-03-01T09:20:00;8.29;59.48
75130;HTU21D;63703;44.716;37.846;2023-03-01T09:22:26;8.27;59.52
75130;HTU21D;63703;44.716;37.846;2023-03-01T09:24:51;8.30;59.54
75130;HTU21D;63703;44.716;37.846;2023-03-01T09:27:17;8.32;59.44
75130;HTU21D;63703;44.716;37.846;2023-03-01T09:29:45;8.30;59.40
75130;HTU21D;63703;44.716;37.846;2023-03-01T09:32:11;8.24;58.88
75130;HTU21D;63703;44.716;37.846;2023-03-01T09:34:37;8.14;58.86
75130;HTU21D;63703;44.716;37.846;2023-03-01T09:37:22;8.08;58.67
75130;HTU21D;63703;44.716;37.846;2023-03-01T09:39:48;8.03;58.90
75130;HTU21D;63703;44.716;37.846;2023-03-01T09:42:14;8.13;58.99
75130;HTU21D;63703;44.716;37.846;2023-03-01T09:47:20;8.04;58.47
75130;HTU21D;63703;44.716;37.846;2023-03-01T09:50:15;8.02;57.94
75130;HTU21D;63703;44.716;37.846;2023-03-01T09:52:43;7.97;58.35
75130;HTU21D;63703;44.716;37.846;2023-03-01T09:55:43;7.92;57.98
75130;HTU21D;63703;44.716;37.846;2023-03-01T10:01:06;7.83;58.06
75130;HTU21D;63703;44.716;37.846;2023-03-01T10:04:16;7.75;58.03
75130;HTU21D;63703;44.716;37.846;2023-03-01T10:09:38;7.69;58.34
75130;HTU21D;63703;44.716;37.846;2023-03-01T10:12:10;7.69;58.35
75130;HTU21D;63703;44.716;37.846;2023-03-01T10:20:25;7.98;58.03
75130;HTU21D;63703;44.716;37.846;2023-03-01T10:22:51;8.12;58.40
75130;HTU21D;63703;44.716;37.846;2023-03-01T10:25:54;8.36;58.03
75130;HTU21D;63703;44.716;37.846;2023-03-01T10:28:31;8.49;57.96
75130;HTU21D;63703;44.716;37.846;2023-03-01T10:30:59;8.63;58.09
75130;HTU21D;63703;44.716;37.846;2023-03-01T10:33:35;8.77;57.68
75130;HTU21D;63703;44.716;37.846;2023-03-01T10:36:03;8.89;57.48
75130;HTU21D;63703;44.716;37.846;2023-03-01T10:38:31;8.93;56.72
75130;HTU21D;63703;44.716;37.846;2023-03-01T10:41:12;8.95;56.71
75130;HTU21D;63703;44.716;37.846;2023-03-01T10:43:47;9.16;56.42
75130;HTU21D;63703;44.716;37.846;2023-03-01T10:49:26;9.44;55.60
75130;HTU21D;63703;44.716;37.846;2023-03-01T10:51:52;9.52;55.75
75130;HTU21D;63703;44.716;37.846;2023-03-01T10:54:29;9.61;55.04
75130;HTU21D;63703;44.716;37.846;2023-03-01T10:56:59;9.64;54.91
75130;HTU21D;63703;44.716;37.846;2023-03-01T10:59:33;9.69;54.55
75130;HTU21D;63703;44.716;37.846;2023-03-01T11:04:36;9.88;54.25
75130;HTU21D;63703;44.716;37.846;2023-03-01T11:07:02;9.83;53.49
75130;HTU21D;63703;44.716;37.846;2023-03-01T11:09:33;9.71;52.64
75130;HTU21D;63703;44.716;37.846;2023-03-01T11:12:15;9.62;52.01
75130;HTU21D;63703;44.716;37.846;2023-03-01T11:14:55;9.53;51.75
75130;HTU21D;63703;44.716;37.846;2023-03-01T11:17:29;9.50;51.94
75130;HTU21D;63703;44.716;37.846;2023-03-01T11:22:52;9.45;51.98
75130;HTU21D;63703;44.716;37.846;2023-03-01T11:25:26;9.46;52.10
75130;HTU21D;63703;44.716;37.846;2023-03-01T11:27:54;9.51;52.04
75130;HTU21D;63703;44.716;37.846;2023-03-01T11:30:24;9.60;51.96
75130;HTU21D;63703;44.716;37.846;2023-03-01T11:35:58;9.76;50.89
75130;HTU21D;63703;44.716;37.846;2023-03-01T11:38:27;9.82;51.82
75130;HTU21D;63703;44.716;37.846;2023-03-01T11:48:49;13.06;45.38
75130;HTU21D;63703;44.716;37.846;2023-03-01T12:08:04;13.63;41.36
75130;HTU21D;63703;44.716;37.846;2023-03-01T12:16:20;11.91;43.12
75130;HTU21D;63703;44.716;37.846;2023-03-01T12:19:01;11.56;44.44
75130;HTU21D;63703;44.716;37.846;2023-03-01T12:21:42;11.38;44.70
75130;HTU21D;63703;44.716;37.846;2023-03-01T12:27:03;10.87;45.23
75130;HTU21D;63703;44.716;37.846;2023-03-01T12:29:44;10.64;45.44
75130;HTU21D;63703;44.716;37.846;2023-03-01T12:37:27;12.03;43.74
75130;HTU21D;63703;44.716;37.846;2023-03-01T12:40:23;12.60;41.71
75130;HTU21D;63703;44.716;37.846;2023-03-01T12:51:14;11.34;44.58
75130;HTU21D;63703;44.716;37.846;2023-03-01T12:53:45;11.13;44.75
75130;HTU21D;63703;44.716;37.846;2023-03-01T12:56:25;10.93;44.25
75130;HTU21D;63703;44.716;37.846;2023-03-01T12:59:19;10.74;43.13
75130;HTU21D;63703;44.716;37.846;2023-03-01T13:11:04;13.67;38.08
75130;HTU21D;63703;44.716;37.846;2023-03-01T13:13:31;14.03;38.51
75130;HTU21D;63703;44.716;37.846;2023-03-01T13:15:57;14.60;37.27
75130;HTU21D;63703;44.716;37.846;2023-03-01T13:18:43;15.12;36.29
75130;HTU21D;63703;44.716;37.846;2023-03-01T13:21:09;15.21;36.20
75130;HTU21D;63703;44.716;37.846;2023-03-01T13:23:39;15.01;36.29
75130;HTU21D;63703;44.716;37.846;2023-03-01T13:31:04;14.20;37.84
75130;HTU21D;63703;44.716;37.846;2023-03-01T13:35:58;14.19;38.00
75130;HTU21D;63703;44.716;37.846;2023-03-01T13:38:38;14.54;36.84
75130;HTU21D;63703;44.716;37.846;2023-03-01T13:41:07;14.52;37.50
75130;HTU21D;63703;44.716;37.846;2023-03-01T13:43:36;13.90;37.39
75130;HTU21D;63703;44.716;37.846;2023-03-01T13:46:12;13.32;37.60
75130;HTU21D;63703;44.716;37.846;2023-03-01T13:48:43;12.84;38.52
75130;HTU21D;63703;44.716;37.846;2023-03-01T13:51:11;12.80;38.59
75130;HTU21D;63703;44.716;37.846;2023-03-01T13:53:45;13.30;37.56
75130;HTU21D;63703;44.716;37.846;2023-03-01T13:56:18;13.37;37.71
75130;HTU21D;63703;44.716;37.846;2023-03-01T14:01:29;12.29;38.20
75130;HTU21D;63703;44.716;37.846;2023-03-01T14:03:57;11.64;39.02
75130;HTU21D;63703;44.716;37.846;2023-03-01T14:06:26;11.12;39.27
75130;HTU21D;63703;44.716;37.846;2023-03-01T14:11:35;10.21;40.15
75130;HTU21D;63703;44.716;37.846;2023-03-01T14:17:20;9.79;40.39
75130;HTU21D;63703;44.716;37.846;2023-03-01T14:19:56;9.54;41.02
75130;HTU21D;63703;44.716;37.846;2023-03-01T14:22:27;9.35;41.47
75130;HTU21D;63703;44.716;37.846;2023-03-01T14:25:15;9.17;41.53
75130;HTU21D;63703;44.716;37.846;2023-03-01T14:27:42;9.00;41.95
75130;HTU21D;63703;44.716;37.846;2023-03-01T14:30:40;8.89;41.73
75130;HTU21D;63703;44.716;37.846;2023-03-01T14:38:37;8.61;42.65
75130;HTU21D;63703;44.716;37.846;2023-03-01T14:41:18;8.48;42.68
75130;HTU21D;63703;44.716;37.846;2023-03-01T14:46:43;8.27;43.06
75130;HTU21D;63703;44.716;37.846;2023-03-01T14:49:14;8.15;43.15
75130;HTU21D;63703;44.716;37.846;2023-03-01T14:51:41;7.98;42.85
75130;HTU21D;63703;44.716;37.846;2023-03-01T14:57:01;7.48;43.77
75130;HTU21D;63703;44.716;37.846;2023-03-01T14:59:27;7.35;44.08
75130;HTU21D;63703;44.716;37.846;2023-03-01T15:01:55;7.24;44.15
75130;HTU21D;63703;44.716;37.846;2023-03-01T15:04:23;7.15;44.30
75130;HTU21D;63703;44.716;37.846;2023-03-01T15:06:54;7.04;44.38
75130;HTU21D;63703;44.716;37.846;2023-03-01T15:09:22;6.98;44.50
75130;HTU21D;63703;44.716;37.846;2023-03-01T15:11:51;6.91;44.64
75130;HTU21D;63703;44.716;37.846;2023-03-01T15:17:33;6.74;44.83
75130;HTU21D;63703;44.716;37.846;2023-03-01T15:20:02;6.65;45.06
75130;HTU21D;63703;44.716;37.846;2023-03-01T15:22:29;6.55;45.23
75130;HTU21D;63703;44.716;37.846;2023-03-01T15:24:55;6.46;45.47
75130;HTU21D;63703;44.716;37.846;2023-03-01T15:27:24;6.44;45.63
75130;HTU21D;63703;44.716;37.846;2023-03-01T15:30:00;6.43;45.74
75130;HTU21D;63703;44.716;37.846;2023-03-01T15:32:29;6.37;45.94
75130;HTU21D;63703;44.716;37.846;2023-03-01T15:34:56;6.30;46.11
75130;HTU21D;63703;44.716;37.846;2023-03-01T15:40:21;6.27;46.35
75130;HTU21D;63703;44.716;37.846;2023-03-01T15:42:50;6.22;46.58
75130;HTU21D;63703;44.716;37.846;2023-03-01T15:48:00;6.14;46.87
75130;HTU21D;63703;44.716;37.846;2023-03-01T15:50:35;6.11;47.06
75130;HTU21D;63703;44.716;37.846;2023-03-01T15:53:10;6.09;47.22
75130;HTU21D;63703;44.716;37.846;2023-03-01T15:55:37;6.06;47.33
75130;HTU21D;63703;44.716;37.846;2023-03-01T15:58:13;6.04;47.42
75130;HTU21D;63703;44.716;37.846;2023-03-01T16:00:39;5.99;47.55
75130;HTU21D;63703;44.716;37.846;2023-03-01T16:03:05;5.96;47.72
75130;HTU21D;63703;44.716;37.846;2023-03-01T16:05:34;5.91;47.95
75130;HTU21D;63703;44.716;37.846;2023-03-01T16:08:00;5.85;48.23
75130;HTU21D;63703;44.716;37.846;2023-03-01T16:10:27;5.81;48.59
75130;HTU21D;63703;44.716;37.846;2023-03-01T16:12:53;5.76;48.99
75130;HTU21D;63703;44.716;37.846;2023-03-01T16:15:25;5.69;49.13
75130;HTU21D;63703;44.716;37.846;2023-03-01T16:17:52;5.64;49.29
75130;HTU21D;63703;44.716;37.846;2023-03-01T16:20:22;5.59;49.54
75130;HTU21D;63703;44.716;37.846;2023-03-01T16:22:48;5.53;49.59
75130;HTU21D;63703;44.716;37.846;2023-03-01T16:25:17;5.50;49.68
75130;HTU21D;63703;44.716;37.846;2023-03-01T16:27:45;5.45;49.80
75130;HTU21D;63703;44.716;37.846;2023-03-01T16:30:12;5.38;49.94
75130;HTU21D;63703;44.716;37.846;2023-03-01T16:32:39;5.32;50.16
75130;HTU21D;63703;44.716;37.846;2023-03-01T16:35:06;5.27;50.37
75130;HTU21D;63703;44.716;37.846;2023-03-01T16:37:33;5.22;50.47
75130;HTU21D;63703;44.716;37.846;2023-03-01T16:39:59;5.16;50.66
75130;HTU21D;63703;44.716;37.846;2023-03-01T16:42:25;5.11;50.73
75130;HTU21D;63703;44.716;37.846;2023-03-01T16:44:56;5.06;50.79
75130;HTU21D;63703;44.716;37.846;2023-03-01T16:47:22;5.01;50.85
75130;HTU21D;63703;44.716;37.846;2023-03-01T16:49:51;4.97;51.05
75130;HTU21D;63703;44.716;37.846;2023-03-01T16:52:17;4.90;51.08
75130;HTU21D;63703;44.716;37.846;2023-03-01T16:54:43;4.83;51.24
75130;HTU21D;63703;44.716;37.846;2023-03-01T16:57:09;4.77;51.37
75130;HTU21D;63703;44.716;37.846;2023-03-01T16:59:35;4.72;51.58
75130;HTU21D;63703;44.716;37.846;2023-03-01T17:02:03;4.64;51.68
75130;HTU21D;63703;44.716;37.846;2023-03-01T17:04:30;4.58;51.84
75130;HTU21D;63703;44.716;37.846;2023-03-01T17:06:55;4.50;52.01
75130;HTU21D;63703;44.716;37.846;2023-03-01T17:09:21;4.43;52.11
75130;HTU21D;63703;44.716;37.846;2023-03-01T17:11:50;4.36;52.27
75130;HTU21D;63703;44.716;37.846;2023-03-01T17:14:16;4.29;52.42
75130;HTU21D;63703;44.716;37.846;2023-03-01T17:16:43;4.23;52.50
75130;HTU21D;63703;44.716;37.846;2023-03-01T17:19:10;4.17;52.64
75130;HTU21D;63703;44.716;37.846;2023-03-01T17:21:36;4.10;52.82
75130;HTU21D;63703;44.716;37.846;2023-03-01T17:24:03;4.04;52.94
75130;HTU21D;63703;44.716;37.846;2023-03-01T17:26:29;4.00;53.04
75130;HTU21D;63703;44.716;37.846;2023-03-01T17:28:56;3.95;53.17
75130;HTU21D;63703;44.716;37.846;2023-03-01T17:31:22;3.90;53.30
75130;HTU21D;63703;44.716;37.846;2023-03-01T17:33:48;3.84;53.39
75130;HTU21D;63703;44.716;37.846;2023-03-01T17:36:15;3.80;53.56
75130;HTU21D;63703;44.716;37.846;2023-03-01T17:38:41;3.75;53.59
75130;HTU21D;63703;44.716;37.846;2023-03-01T17:41:07;3.71;53.63